sensor_id;sensor_type;location;lat;lon;timestamp;pressure;altitude;pressure_sealevel;temperature;humidity
64292;BME280;50628;51.008;13.658;2022-10-17T00:02:47;100401.72;;;12.62;100.00
64292;BME280;50628;51.008;13.658;2022-10-17T00:07:48;100396.06;;;12.46;100.00
64292;BME280;50628;51.008;13.658;2022-10-17T00:12:51;100404.25;;;12.30;100.00
64292;BME280;50628;51.008;13.658;2022-10-17T00:17:54;100403.53;;;12.28;100.00
64292;BME280;50628;51.008;13.658;2022-10-17T00:22:56;100403.53;;;12.28;100.00
64292;BME280;50628;51.008;13.658;2022-10-17T00:27:58;100396.75;;;12.37;100.00
64292;BME280;50628;51.008;13.658;2022-10-17T00:33:01;100399.16;;;12.28;100.00
64292;BME280;50628;51.008;13.658;2022-10-17T00:38:02;100398.66;;;12.34;100.00
64292;BME280;50628;51.008;13.658;2022-10-17T00:43:05;100394.28;;;12.24;100.00
64292;BME280;50628;51.008;13.658;2022-10-17T00:48:14;100394.88;;;12.16;100.00
64292;BME280;50628;51.008;13.658;2022-10-17T00:53:17;100410.97;;;11.99;100.00
64292;BME280;50628;51.008;13.658;2022-10-17T00:58:19;100403.16;;;11.99;100.00
64292;BME280;50628;51.008;13.658;2022-10-17T01:03:23;100423.53;;;11.94;100.00
64292;BME280;50628;51.008;13.658;2022-10-17T01:08:25;100425.03;;;11.85;100.00
64292;BME280;50628;51.008;13.658;2022-10-17T01:13:31;100416.53;;;11.59;100.00
64292;BME280;50628;51.008;13.658;2022-10-17T01:18:47;100418.63;;;11.42;100.00
64292;BME280;50628;51.008;13.658;2022-10-17T01:24:28;100420.72;;;11.37;100.00
64292;BME280;50628;51.008;13.658;2022-10-17T01:30:02;100419.28;;;11.57;100.00
64292;BME280;50628;51.008;13.658;2022-10-17T01:35:18;100408.06;;;11.44;100.00
64292;BME280;50628;51.008;13.658;2022-10-17T01:40:25;100409.50;;;11.48;100.00
64292;BME280;50628;51.008;13.658;2022-10-17T01:45:36;100412.13;;;11.48;100.00
64292;BME280;50628;51.008;13.658;2022-10-17T01:50:45;100414.22;;;11.43;100.00
64292;BME280;50628;51.008;13.658;2022-10-17T01:55:50;100420.47;;;11.29;100.00
64292;BME280;50628;51.008;13.658;2022-10-17T02:00:55;100409.06;;;11.19;100.00
64292;BME280;50628;51.008;13.658;2022-10-17T02:06:04;100398.34;;;11.11;100.00
64292;BME280;50628;51.008;13.658;2022-10-17T02:11:12;100389.16;;;10.94;100.00
64292;BME280;50628;51.008;13.658;2022-10-17T02:16:22;100388.84;;;10.86;100.00
64292;BME280;50628;51.008;13.658;2022-10-17T02:21:37;100388.28;;;10.93;100.00
64292;BME280;50628;51.008;13.658;2022-10-17T02:26:47;100380.34;;;10.83;100.00
64292;BME280;50628;51.008;13.658;2022-10-17T02:31:55;100383.22;;;10.92;100.00
64292;BME280;50628;51.008;13.658;2022-10-17T02:37:02;100392.44;;;10.72;100.00
64292;BME280;50628;51.008;13.658;2022-10-17T02:42:09;100391.16;;;10.77;100.00
64292;BME280;50628;51.008;13.658;2022-10-17T02:47:16;100389.19;;;10.81;100.00
64292;BME280;50628;51.008;13.658;2022-10-17T02:52:26;100401.59;;;10.77;100.00
64292;BME280;50628;51.008;13.658;2022-10-17T02:57:34;100391.63;;;10.71;100.00
64292;BME280;50628;51.008;13.658;2022-10-17T03:02:39;100399.56;;;10.57;100.00
64292;BME280;50628;51.008;13.658;2022-10-17T03:07:44;100401.56;;;10.53;100.00
64292;BME280;50628;51.008;13.658;2022-10-17T03:12:46;100402.69;;;10.49;100.00
64292;BME280;50628;51.008;13.658;2022-10-17T03:17:49;100404.16;;;10.40;100.00
64292;BME280;50628;51.008;13.658;2022-10-17T03:22:53;100405.19;;;10.38;100.00
64292;BME280;50628;51.008;13.658;2022-10-17T03:27:57;100398.84;;;10.42;100.00
64292;BME280;50628;51.008;13.658;2022-10-17T03:33:00;100404.91;;;10.30;100.00
64292;BME280;50628;51.008;13.658;2022-10-17T03:38:03;100421.44;;;10.16;100.00
64292;BME280;50628;51.008;13.658;2022-10-17T03:43:05;100416.22;;;10.16;100.00
64292;BME280;50628;51.008;13.658;2022-10-17T03:48:06;100416.53;;;10.24;100.00
64292;BME280;50628;51.008;13.658;2022-10-17T03:53:10;100419.44;;;10.07;100.00
64292;BME280;50628;51.008;13.658;2022-10-17T03:58:11;100426.22;;;9.96;100.00
64292;BME280;50628;51.008;13.658;2022-10-17T04:03:13;100421.31;;;9.92;100.00
64292;BME280;50628;51.008;13.658;2022-10-17T04:08:16;100433.69;;;9.88;100.00
64292;BME280;50628;51.008;13.658;2022-10-17T04:13:38;100440.75;;;9.86;100.00
64292;BME280;50628;51.008;13.658;2022-10-17T04:18:41;100436.59;;;9.96;100.00
64292;BME280;50628;51.008;13.658;2022-10-17T04:23:45;100438.59;;;9.93;100.00
64292;BME280;50628;51.008;13.658;2022-10-17T04:29:05;100455.31;;;9.76;100.00
64292;BME280;50628;51.008;13.658;2022-10-17T04:34:07;100456.75;;;9.80;100.00
64292;BME280;50628;51.008;13.658;2022-10-17T04:39:10;100446.03;;;9.85;100.00
64292;BME280;50628;51.008;13.658;2022-10-17T04:44:12;100451.47;;;9.94;100.00
64292;BME280;50628;51.008;13.658;2022-10-17T04:49:19;100458.75;;;9.89;100.00
64292;BME280;50628;51.008;13.658;2022-10-17T04:54:27;100457.91;;;9.89;100.00
64292;BME280;50628;51.008;13.658;2022-10-17T04:59:37;100460.09;;;9.82;100.00
64292;BME280;50628;51.008;13.658;2022-10-17T05:04:50;100464.75;;;9.77;100.00
64292;BME280;50628;51.008;13.658;2022-10-17T05:09:55;100464.84;;;9.63;100.00
64292;BME280;50628;51.008;13.658;2022-10-17T05:14:58;100466.28;;;9.67;100.00
64292;BME280;50628;51.008;13.658;2022-10-17T05:20:02;100476.47;;;9.70;100.00
64292;BME280;50628;51.008;13.658;2022-10-17T05:25:08;100472.53;;;9.64;100.00
64292;BME280;50628;51.008;13.658;2022-10-17T05:30:11;100481.28;;;9.76;100.00
64292;BME280;50628;51.008;13.658;2022-10-17T05:35:14;100483.44;;;9.69;100.00
64292;BME280;50628;51.008;13.658;2022-10-17T05:40:17;100495.31;;;9.73;100.00
64292;BME280;50628;51.008;13.658;2022-10-17T05:45:19;100499.78;;;9.71;100.00
64292;BME280;50628;51.008;13.658;2022-10-17T05:50:21;100497.28;;;9.70;100.00
64292;BME280;50628;51.008;13.658;2022-10-17T05:55:37;100506.97;;;9.68;100.00
64292;BME280;50628;51.008;13.658;2022-10-17T06:00:39;100514.34;;;9.74;100.00
64292;BME280;50628;51.008;13.658;2022-10-17T06:05:41;100510.22;;;9.84;100.00
64292;BME280;50628;51.008;13.658;2022-10-17T06:10:46;100509.72;;;9.92;100.00
64292;BME280;50628;51.008;13.658;2022-10-17T06:15:48;100510.56;;;10.05;100.00
64292;BME280;50628;51.008;13.658;2022-10-17T06:20:50;100519.63;;;10.00;100.00
64292;BME280;50628;51.008;13.658;2022-10-17T06:25:57;100517.06;;;10.25;100.00
64292;BME280;50628;51.008;13.658;2022-10-17T06:31:03;100526.00;;;10.21;100.00
64292;BME280;50628;51.008;13.658;2022-10-17T06:36:06;100529.69;;;10.31;100.00
64292;BME280;50628;51.008;13.658;2022-10-17T06:41:11;100542.28;;;10.50;100.00
64292;BME280;50628;51.008;13.658;2022-10-17T06:46:16;100536.47;;;10.72;100.00
64292;BME280;50628;51.008;13.658;2022-10-17T06:51:28;100540.53;;;10.89;100.00
64292;BME280;50628;51.008;13.658;2022-10-17T06:56:33;100549.88;;;11.04;100.00
64292;BME280;50628;51.008;13.658;2022-10-17T07:01:55;100548.81;;;11.20;100.00
64292;BME280;50628;51.008;13.658;2022-10-17T07:06:58;100553.88;;;11.34;100.00
64292;BME280;50628;51.008;13.658;2022-10-17T07:12:04;100555.34;;;11.62;100.00
64292;BME280;50628;51.008;13.658;2022-10-17T07:17:08;100550.03;;;11.88;100.00
64292;BME280;50628;51.008;13.658;2022-10-17T07:22:10;100554.28;;;12.13;100.00
64292;BME280;50628;51.008;13.658;2022-10-17T07:27:16;100552.84;;;12.55;100.00
64292;BME280;50628;51.008;13.658;2022-10-17T07:32:18;100549.31;;;12.79;100.00
64292;BME280;50628;51.008;13.658;2022-10-17T07:37:20;100542.53;;;12.99;100.00
64292;BME280;50628;51.008;13.658;2022-10-17T07:42:28;100546.81;;;13.34;100.00
64292;BME280;50628;51.008;13.658;2022-10-17T07:47:31;100547.91;;;13.96;100.00
64292;BME280;50628;51.008;13.658;2022-10-17T07:52:38;100549.78;;;14.68;100.00
64292;BME280;50628;51.008;13.658;2022-10-17T07:57:46;100564.09;;;15.25;100.00
64292;BME280;50628;51.008;13.658;2022-10-17T08:02:48;100549.94;;;15.67;100.00
64292;BME280;50628;51.008;13.658;2022-10-17T08:07:51;100542.25;;;16.04;100.00
64292;BME280;50628;51.008;13.658;2022-10-17T08:13:14;100538.09;;;16.31;100.00
64292;BME280;50628;51.008;13.658;2022-10-17T08:18:20;100539.91;;;16.67;100.00
64292;BME280;50628;51.008;13.658;2022-10-17T08:23:24;100530.88;;;16.90;100.00
64292;BME280;50628;51.008;13.658;2022-10-17T08:29:00;100522.97;;;17.17;100.00
64292;BME280;50628;51.008;13.658;2022-10-17T08:34:25;100514.22;;;17.44;100.00
64292;BME280;50628;51.008;13.658;2022-10-17T08:39:35;100516.41;;;17.67;100.00
64292;BME280;50628;51.008;13.658;2022-10-17T08:44:48;100511.69;;;17.88;100.00
64292;BME280;50628;51.008;13.658;2022-10-17T08:50:00;100519.28;;;18.09;100.00
64292;BME280;50628;51.008;13.658;2022-10-17T08:55:12;100519.22;;;18.27;100.00
64292;BME280;50628;51.008;13.658;2022-10-17T09:00:19;100517.00;;;18.41;100.00
64292;BME280;50628;51.008;13.658;2022-10-17T09:05:36;100511.31;;;18.53;100.00
64292;BME280;50628;51.008;13.658;2022-10-17T09:10:51;100514.41;;;18.49;100.00
64292;BME280;50628;51.008;13.658;2022-10-17T09:21:40;100516.44;;;18.89;100.00
64292;BME280;50628;51.008;13.658;2022-10-17T09:26:44;100511.25;;;19.14;100.00
64292;BME280;50628;51.008;13.658;2022-10-17T09:31:50;100502.88;;;19.27;100.00
64292;BME280;50628;51.008;13.658;2022-10-17T09:36:57;100510.44;;;19.21;100.00
64292;BME280;50628;51.008;13.658;2022-10-17T09:42:00;100515.63;;;19.48;100.00
64292;BME280;50628;51.008;13.658;2022-10-17T09:47:14;100513.38;;;19.77;100.00
64292;BME280;50628;51.008;13.658;2022-10-17T09:52:23;100492.75;;;19.89;100.00
64292;BME280;50628;51.008;13.658;2022-10-17T09:57:25;100483.50;;;20.01;100.00
64292;BME280;50628;51.008;13.658;2022-10-17T10:02:28;100490.53;;;20.25;100.00
64292;BME280;50628;51.008;13.658;2022-10-17T10:07:35;100495.00;;;20.25;100.00
64292;BME280;50628;51.008;13.658;2022-10-17T10:12:38;100498.63;;;20.32;100.00
64292;BME280;50628;51.008;13.658;2022-10-17T10:17:40;100498.47;;;20.25;100.00
64292;BME280;50628;51.008;13.658;2022-10-17T10:22:43;100497.44;;;20.59;100.00
64292;BME280;50628;51.008;13.658;2022-10-17T10:27:45;100507.81;;;20.69;100.00
64292;BME280;50628;51.008;13.658;2022-10-17T10:32:48;100501.13;;;20.89;100.00
64292;BME280;50628;51.008;13.658;2022-10-17T10:37:53;100504.25;;;20.93;100.00
64292;BME280;50628;51.008;13.658;2022-10-17T10:42:57;100486.81;;;21.07;100.00
64292;BME280;50628;51.008;13.658;2022-10-17T10:48:01;100480.75;;;21.21;100.00
64292;BME280;50628;51.008;13.658;2022-10-17T10:53:14;100484.66;;;21.33;100.00
64292;BME280;50628;51.008;13.658;2022-10-17T10:58:26;100491.88;;;21.48;100.00
64292;BME280;50628;51.008;13.658;2022-10-17T11:03:34;100495.50;;;21.47;100.00
64292;BME280;50628;51.008;13.658;2022-10-17T11:08:42;100494.19;;;21.20;100.00
64292;BME280;50628;51.008;13.658;2022-10-17T11:13:47;100494.09;;;21.59;100.00
64292;BME280;50628;51.008;13.658;2022-10-17T11:18:55;100489.09;;;22.02;100.00
64292;BME280;50628;51.008;13.658;2022-10-17T11:24:04;100487.63;;;22.52;100.00
64292;BME280;50628;51.008;13.658;2022-10-17T11:29:11;100479.22;;;22.63;100.00
64292;BME280;50628;51.008;13.658;2022-10-17T11:34:16;100477.50;;;23.07;100.00
64292;BME280;50628;51.008;13.658;2022-10-17T11:39:26;100468.34;;;23.09;100.00
64292;BME280;50628;51.008;13.658;2022-10-17T11:44:33;100463.84;;;23.10;100.00
64292;BME280;50628;51.008;13.658;2022-10-17T11:49:37;100459.25;;;23.40;100.00
64292;BME280;50628;51.008;13.658;2022-10-17T11:54:44;100456.03;;;23.23;100.00
64292;BME280;50628;51.008;13.658;2022-10-17T11:59:58;100444.31;;;23.18;100.00
64292;BME280;50628;51.008;13.658;2022-10-17T12:05:16;100435.75;;;23.37;100.00
64292;BME280;50628;51.008;13.658;2022-10-17T12:10:29;100428.56;;;23.81;100.00
64292;BME280;50628;51.008;13.658;2022-10-17T12:15:31;100419.78;;;23.59;100.00
64292;BME280;50628;51.008;13.658;2022-10-17T12:20:34;100403.06;;;24.28;100.00
64292;BME280;50628;51.008;13.658;2022-10-17T12:25:48;100402.84;;;24.64;100.00
64292;BME280;50628;51.008;13.658;2022-10-17T12:30:53;100394.81;;;25.25;100.00
64292;BME280;50628;51.008;13.658;2022-10-17T12:41:53;100375.69;;;25.02;100.00
64292;BME280;50628;51.008;13.658;2022-10-17T12:46:56;100372.56;;;24.72;100.00
64292;BME280;50628;51.008;13.658;2022-10-17T12:52:16;100369.72;;;24.80;100.00
64292;BME280;50628;51.008;13.658;2022-10-17T12:57:23;100363.22;;;25.16;100.00
64292;BME280;50628;51.008;13.658;2022-10-17T13:02:28;100370.56;;;24.94;100.00
64292;BME280;50628;51.008;13.658;2022-10-17T13:07:32;100362.84;;;25.39;100.00
64292;BME280;50628;51.008;13.658;2022-10-17T13:12:36;100365.50;;;25.59;100.00
64292;BME280;50628;51.008;13.658;2022-10-17T13:17:39;100375.81;;;26.20;100.00
64292;BME280;50628;51.008;13.658;2022-10-17T13:22:43;100389.34;;;26.25;100.00
64292;BME280;50628;51.008;13.658;2022-10-17T13:27:47;100379.28;;;26.27;100.00
64292;BME280;50628;51.008;13.658;2022-10-17T13:32:49;100380.22;;;26.60;100.00
64292;BME280;50628;51.008;13.658;2022-10-17T13:37:51;100365.28;;;25.54;100.00
64292;BME280;50628;51.008;13.658;2022-10-17T13:42:57;100368.53;;;24.96;100.00
64292;BME280;50628;51.008;13.658;2022-10-17T13:48:04;100365.22;;;24.94;100.00
64292;BME280;50628;51.008;13.658;2022-10-17T13:53:15;100371.25;;;25.22;100.00
64292;BME280;50628;51.008;13.658;2022-10-17T13:58:18;100368.78;;;25.34;100.00
64292;BME280;50628;51.008;13.658;2022-10-17T14:03:21;100384.66;;;24.81;100.00
64292;BME280;50628;51.008;13.658;2022-10-17T14:08:23;100381.50;;;24.51;100.00
64292;BME280;50628;51.008;13.658;2022-10-17T14:13:27;100382.84;;;23.92;100.00
64292;BME280;50628;51.008;13.658;2022-10-17T14:18:32;100392.78;;;24.18;100.00
64292;BME280;50628;51.008;13.658;2022-10-17T14:23:36;100396.75;;;24.35;100.00
64292;BME280;50628;51.008;13.658;2022-10-17T14:28:42;100398.78;;;24.27;100.00
64292;BME280;50628;51.008;13.658;2022-10-17T14:33:45;100392.16;;;23.81;100.00
64292;BME280;50628;51.008;13.658;2022-10-17T14:38:50;100396.66;;;23.09;100.00
64292;BME280;50628;51.008;13.658;2022-10-17T14:43:56;100394.50;;;23.41;100.00
64292;BME280;50628;51.008;13.658;2022-10-17T14:49:03;100398.06;;;22.90;100.00
64292;BME280;50628;51.008;13.658;2022-10-17T14:54:18;100400.56;;;22.41;100.00
64292;BME280;50628;51.008;13.658;2022-10-17T14:59:21;100413.63;;;21.98;100.00
64292;BME280;50628;51.008;13.658;2022-10-17T15:04:25;100418.50;;;21.71;100.00
64292;BME280;50628;51.008;13.658;2022-10-17T15:09:26;100424.78;;;22.08;100.00
64292;BME280;50628;51.008;13.658;2022-10-17T15:14:30;100436.09;;;22.76;100.00
64292;BME280;50628;51.008;13.658;2022-10-17T15:19:31;100444.16;;;23.19;100.00
64292;BME280;50628;51.008;13.658;2022-10-17T15:24:33;100441.53;;;22.38;100.00
64292;BME280;50628;51.008;13.658;2022-10-17T15:29:36;100441.03;;;21.52;100.00
64292;BME280;50628;51.008;13.658;2022-10-17T15:34:38;100445.66;;;21.04;100.00
64292;BME280;50628;51.008;13.658;2022-10-17T15:39:40;100445.38;;;20.91;100.00
64292;BME280;50628;51.008;13.658;2022-10-17T15:44:43;100446.34;;;20.59;100.00
64292;BME280;50628;51.008;13.658;2022-10-17T15:49:48;100448.69;;;20.45;100.00
64292;BME280;50628;51.008;13.658;2022-10-17T15:54:50;100460.63;;;20.33;100.00
64292;BME280;50628;51.008;13.658;2022-10-17T15:59:54;100458.66;;;20.27;100.00
64292;BME280;50628;51.008;13.658;2022-10-17T16:04:58;100465.13;;;20.08;100.00
64292;BME280;50628;51.008;13.658;2022-10-17T16:09:59;100471.13;;;19.94;100.00
64292;BME280;50628;51.008;13.658;2022-10-17T16:15:03;100483.97;;;19.80;100.00
64292;BME280;50628;51.008;13.658;2022-10-17T16:20:06;100494.72;;;19.71;100.00
64292;BME280;50628;51.008;13.658;2022-10-17T16:25:17;100494.00;;;19.60;100.00
64292;BME280;50628;51.008;13.658;2022-10-17T16:30:22;100490.88;;;19.40;100.00
64292;BME280;50628;51.008;13.658;2022-10-17T16:35:26;100490.69;;;19.26;100.00
64292;BME280;50628;51.008;13.658;2022-10-17T16:40:28;100494.94;;;19.10;100.00
64292;BME280;50628;51.008;13.658;2022-10-17T16:45:31;100495.34;;;18.97;100.00
64292;BME280;50628;51.008;13.658;2022-10-17T16:50:37;100500.25;;;18.84;100.00
64292;BME280;50628;51.008;13.658;2022-10-17T16:55:39;100496.59;;;18.77;100.00
64292;BME280;50628;51.008;13.658;2022-10-17T17:00:43;100504.78;;;18.66;100.00
64292;BME280;50628;51.008;13.658;2022-10-17T17:05:49;100510.41;;;18.71;100.00
64292;BME280;50628;51.008;13.658;2022-10-17T17:10:51;100505.22;;;18.53;100.00
64292;BME280;50628;51.008;13.658;2022-10-17T17:16:03;100509.91;;;18.41;100.00
64292;BME280;50628;51.008;13.658;2022-10-17T17:21:07;100510.31;;;18.28;100.00
64292;BME280;50628;51.008;13.658;2022-10-17T17:26:11;100520.59;;;18.13;100.00
64292;BME280;50628;51.008;13.658;2022-10-17T17:31:17;100524.22;;;18.12;100.00
64292;BME280;50628;51.008;13.658;2022-10-17T17:36:21;100525.13;;;17.49;100.00
64292;BME280;50628;51.008;13.658;2022-10-17T17:41:23;100529.47;;;17.59;100.00
64292;BME280;50628;51.008;13.658;2022-10-17T17:46:27;100532.34;;;17.65;100.00
64292;BME280;50628;51.008;13.658;2022-10-17T17:51:29;100535.34;;;17.35;100.00
64292;BME280;50628;51.008;13.658;2022-10-17T17:56:31;100541.72;;;17.04;100.00
64292;BME280;50628;51.008;13.658;2022-10-17T18:01:34;100538.72;;;16.99;100.00
64292;BME280;50628;51.008;13.658;2022-10-17T18:06:38;100539.09;;;16.67;100.00
64292;BME280;50628;51.008;13.658;2022-10-17T18:11:40;100529.41;;;16.58;100.00
64292;BME280;50628;51.008;13.658;2022-10-17T18:16:43;100539.13;;;16.48;100.00
64292;BME280;50628;51.008;13.658;2022-10-17T18:21:45;100537.22;;;16.40;100.00
64292;BME280;50628;51.008;13.658;2022-10-17T18:26:46;100526.75;;;16.20;100.00
64292;BME280;50628;51.008;13.658;2022-10-17T18:31:50;100540.72;;;15.92;100.00
64292;BME280;50628;51.008;13.658;2022-10-17T18:36:52;100547.03;;;15.50;100.00
64292;BME280;50628;51.008;13.658;2022-10-17T18:41:54;100538.09;;;15.63;100.00
64292;BME280;50628;51.008;13.658;2022-10-17T18:46:57;100536.31;;;15.73;100.00
64292;BME280;50628;51.008;13.658;2022-10-17T18:51:59;100538.34;;;15.50;100.00
64292;BME280;50628;51.008;13.658;2022-10-17T18:57:01;100534.97;;;15.28;100.00
64292;BME280;50628;51.008;13.658;2022-10-17T19:02:04;100536.19;;;15.14;100.00
64292;BME280;50628;51.008;13.658;2022-10-17T19:07:06;100550.91;;;15.06;100.00
64292;BME280;50628;51.008;13.658;2022-10-17T19:12:08;100546.84;;;14.82;100.00
64292;BME280;50628;51.008;13.658;2022-10-17T19:17:11;100544.94;;;14.63;100.00
64292;BME280;50628;51.008;13.658;2022-10-17T19:22:13;100544.78;;;14.55;100.00
64292;BME280;50628;51.008;13.658;2022-10-17T19:27:15;100560.13;;;14.48;100.00
64292;BME280;50628;51.008;13.658;2022-10-17T19:32:21;100556.41;;;14.51;100.00
64292;BME280;50628;51.008;13.658;2022-10-17T19:37:22;100560.50;;;14.55;100.00
64292;BME280;50628;51.008;13.658;2022-10-17T19:42:24;100567.81;;;14.40;100.00
64292;BME280;50628;51.008;13.658;2022-10-17T19:47:27;100568.19;;;14.36;100.00
64292;BME280;50628;51.008;13.658;2022-10-17T19:52:29;100570.38;;;14.52;100.00
64292;BME280;50628;51.008;13.658;2022-10-17T19:57:31;100574.50;;;14.33;100.00
64292;BME280;50628;51.008;13.658;2022-10-17T20:02:37;100582.47;;;14.11;100.00
64292;BME280;50628;51.008;13.658;2022-10-17T20:07:38;100585.47;;;14.06;100.00
64292;BME280;50628;51.008;13.658;2022-10-17T20:12:40;100588.69;;;14.10;100.00
64292;BME280;50628;51.008;13.658;2022-10-17T20:17:43;100598.22;;;13.99;100.00
64292;BME280;50628;51.008;13.658;2022-10-17T20:22:45;100603.44;;;13.78;100.00
64292;BME280;50628;51.008;13.658;2022-10-17T20:27:46;100612.16;;;14.00;100.00
64292;BME280;50628;51.008;13.658;2022-10-17T20:32:49;100618.97;;;13.91;100.00
64292;BME280;50628;51.008;13.658;2022-10-17T20:37:51;100614.00;;;13.66;100.00
64292;BME280;50628;51.008;13.658;2022-10-17T20:42:53;100620.59;;;13.49;100.00
64292;BME280;50628;51.008;13.658;2022-10-17T20:47:56;100629.63;;;13.56;100.00
64292;BME280;50628;51.008;13.658;2022-10-17T20:52:58;100630.81;;;13.52;100.00
64292;BME280;50628;51.008;13.658;2022-10-17T20:57:59;100629.25;;;13.60;100.00
64292;BME280;50628;51.008;13.658;2022-10-17T21:03:03;100622.00;;;13.64;100.00
64292;BME280;50628;51.008;13.658;2022-10-17T21:08:05;100619.75;;;13.59;100.00
64292;BME280;50628;51.008;13.658;2022-10-17T21:13:07;100619.78;;;13.37;100.00
64292;BME280;50628;51.008;13.658;2022-10-17T21:18:10;100621.44;;;13.49;100.00
64292;BME280;50628;51.008;13.658;2022-10-17T21:23:12;100623.56;;;13.21;100.00
64292;BME280;50628;51.008;13.658;2022-10-17T21:28:13;100620.56;;;12.92;100.00
64292;BME280;50628;51.008;13.658;2022-10-17T21:33:16;100613.09;;;12.88;100.00
64292;BME280;50628;51.008;13.658;2022-10-17T21:38:18;100618.91;;;13.14;100.00
64292;BME280;50628;51.008;13.658;2022-10-17T21:43:20;100621.03;;;13.20;100.00
64292;BME280;50628;51.008;13.658;2022-10-17T21:48:23;100609.53;;;13.11;100.00
64292;BME280;50628;51.008;13.658;2022-10-17T21:53:25;100622.59;;;13.00;100.00
64292;BME280;50628;51.008;13.658;2022-10-17T21:58:27;100625.88;;;12.80;100.00
64292;BME280;50628;51.008;13.658;2022-10-17T22:03:32;100629.00;;;12.96;100.00
64292;BME280;50628;51.008;13.658;2022-10-17T22:08:35;100625.09;;;13.02;100.00
64292;BME280;50628;51.008;13.658;2022-10-17T22:13:37;100628.16;;;12.84;100.00
64292;BME280;50628;51.008;13.658;2022-10-17T22:18:41;100636.91;;;12.61;100.00
64292;BME280;50628;51.008;13.658;2022-10-17T22:23:45;100640.38;;;12.84;100.00
64292;BME280;50628;51.008;13.658;2022-10-17T22:28:47;100644.75;;;12.72;100.00
64292;BME280;50628;51.008;13.658;2022-10-17T22:33:50;100642.28;;;12.70;100.00
64292;BME280;50628;51.008;13.658;2022-10-17T22:38:52;100650.09;;;12.70;100.00
64292;BME280;50628;51.008;13.658;2022-10-17T22:43:54;100647.75;;;12.78;100.00
64292;BME280;50628;51.008;13.658;2022-10-17T22:48:57;100644.59;;;12.62;100.00
64292;BME280;50628;51.008;13.658;2022-10-17T22:53:58;100646.53;;;12.60;100.00
64292;BME280;50628;51.008;13.658;2022-10-17T22:59:00;100653.66;;;12.69;100.00
64292;BME280;50628;51.008;13.658;2022-10-17T23:04:03;100651.75;;;12.60;100.00
64292;BME280;50628;51.008;13.658;2022-10-17T23:09:05;100642.47;;;12.56;100.00
64292;BME280;50628;51.008;13.658;2022-10-17T23:14:07;100650.63;;;12.51;100.00
64292;BME280;50628;51.008;13.658;2022-10-17T23:19:10;100652.16;;;12.43;100.00
64292;BME280;50628;51.008;13.658;2022-10-17T23:24:11;100649.75;;;12.40;100.00
64292;BME280;50628;51.008;13.658;2022-10-17T23:29:13;100649.47;;;12.20;100.00
64292;BME280;50628;51.008;13.658;2022-10-17T23:34:16;100647.78;;;12.19;100.00
64292;BME280;50628;51.008;13.658;2022-10-17T23:39:18;100654.41;;;12.12;100.00
64292;BME280;50628;51.008;13.658;2022-10-17T23:44:20;100652.50;;;12.14;100.00
64292;BME280;50628;51.008;13.658;2022-10-17T23:49:24;100635.13;;;12.02;100.00
64292;BME280;50628;51.008;13.658;2022-10-17T23:54:26;100643.50;;;11.94;100.00
64292;BME280;50628;51.008;13.658;2022-10-17T23:59:27;100643.44;;;12.07;100.00
